Pine River, Wisconsin
Current Conditions -  °F | °C
As of 3:56 PM on Friday 31 Oct 2014 (Local Time) from KY50 Reporting Station
Scattered Clouds Scattered Clouds  
Wind Chill: 32°   Ceiling: Unl
Heat Index: 39°   Visibility: 10mi
Dew Point: 17°   Wind: 12mph
Humidity: 41%   Direction: 20°NNE
Pressure: 30.39"   Gusts: 22mph
Location:  44.15°N, 89.08°W
Report Text: KY50 312056Z AUTO 02010G19KT 10SM SCT048 04/M08 A3039 RMK AO2 TSNO 53002 T00381083 SLP296
Loading
Personal Weather Stations






























Interactive Weather Map
Tropical Storm Tracking
New forecast layout! Learn more

10-Day Weather Forecast

Advertisements
Track Severe Weather on mobile